createdAt,value
2022-08-23T00:02:27.014Z,98330.00
2022-08-23T00:05:07.550Z,98325.81
2022-08-23T00:07:43.715Z,98326.94
2022-08-23T00:10:14.729Z,98328.78
2022-08-23T00:12:43.590Z,98331.41
2022-08-23T00:15:15.072Z,98333.88
2022-08-23T00:17:42.288Z,98334.56
2022-08-23T00:20:14.251Z,98335.00
2022-08-23T00:22:41.116Z,98339.81
2022-08-23T00:25:13.150Z,98343.28
2022-08-23T00:27:40.785Z,98333.44
2022-08-23T00:30:10.787Z,98343.13
2022-08-23T00:32:39.621Z,98341.94
2022-08-23T00:35:09.391Z,98339.38
2022-08-23T00:37:36.108Z,98343.63
2022-08-23T00:40:06.473Z,98338.28
2022-08-23T00:43:03.247Z,98340.59
2022-08-23T00:46:13.324Z,98330.50
2022-08-23T00:48:40.971Z,98338.44
2022-08-23T00:51:21.345Z,98333.50
2022-08-23T00:53:55.431Z,98331.81
2022-08-23T00:56:25.398Z,98333.81
2022-08-23T00:58:54.384Z,98337.47
2022-08-23T01:01:23.995Z,98331.16
2022-08-23T01:03:59.214Z,98333.13
2022-08-23T01:06:49.570Z,98337.78
2022-08-23T01:09:21.128Z,98337.56
2022-08-23T01:11:59.941Z,98342.84
2022-08-23T01:14:48.980Z,98339.94
2022-08-23T01:17:25.230Z,98339.22
2022-08-23T01:20:04.679Z,98332.53
2022-08-23T01:23:08.544Z,98333.31
2022-08-23T01:25:37.180Z,98335.44
2022-08-23T01:28:04.652Z,98339.22
2022-08-23T01:30:33.481Z,98343.97
2022-08-23T01:33:06.559Z,98342.25
2022-08-23T01:35:39.863Z,98341.94
2022-08-23T01:38:08.542Z,98347.28
2022-08-23T01:40:37.383Z,98343.06
2022-08-23T01:43:07.257Z,98333.84
2022-08-23T01:45:34.101Z,98344.38
2022-08-23T01:48:02.616Z,98346.28
2022-08-23T01:50:30.116Z,98344.75
2022-08-23T01:52:57.701Z,98341.72
2022-08-23T01:55:25.727Z,98344.97
2022-08-23T01:57:56.957Z,98352.03
2022-08-23T02:00:30.398Z,98356.16
2022-08-23T02:02:59.264Z,98356.16
2022-08-23T02:05:27.138Z,98347.91
2022-08-23T02:07:54.018Z,98352.00
2022-08-23T02:10:21.423Z,98349.19
2022-08-23T02:12:47.983Z,98350.31
2022-08-23T02:15:16.223Z,98354.56
2022-08-23T02:17:44.304Z,98351.69
2022-08-23T02:20:12.107Z,98348.53
2022-08-23T02:22:39.518Z,98354.44
2022-08-23T02:25:07.447Z,98358.94
2022-08-23T02:27:34.046Z,98355.03
2022-08-23T02:30:00.631Z,98359.78
2022-08-23T02:32:28.728Z,98364.81
2022-08-23T02:35:04.993Z,98363.28
2022-08-23T02:37:33.354Z,98356.31
2022-08-23T02:39:59.931Z,98359.00
2022-08-23T02:42:26.470Z,98365.47
2022-08-23T02:44:53.060Z,98360.16
2022-08-23T02:47:19.647Z,98360.44
2022-08-23T02:49:46.509Z,98356.00
2022-08-23T02:52:13.072Z,98361.88
2022-08-23T02:54:39.681Z,98361.63
2022-08-23T02:57:06.519Z,98362.47
2022-08-23T02:59:33.666Z,98359.97
2022-08-23T03:02:00.278Z,98363.72
2022-08-23T03:04:27.439Z,98361.06
2022-08-23T03:06:54.093Z,98357.16
2022-08-23T03:09:20.726Z,98363.44
2022-08-23T03:11:49.896Z,98365.81
2022-08-23T03:14:16.862Z,98363.28
2022-08-23T03:16:44.786Z,98357.31
2022-08-23T03:19:11.377Z,98356.72
2022-08-23T03:21:38.543Z,98362.16
2022-08-23T03:24:10.012Z,98366.78
2022-08-23T03:26:37.495Z,98366.38
2022-08-23T03:29:04.466Z,98363.59
2022-08-23T03:31:31.289Z,98363.03
2022-08-23T03:33:58.124Z,98367.25
2022-08-23T03:36:28.077Z,98366.53
2022-08-23T03:38:55.602Z,98367.38
2022-08-23T03:41:22.279Z,98359.56
2022-08-23T03:43:48.903Z,98371.00
2022-08-23T03:46:22.881Z,98365.00
2022-08-23T03:48:53.196Z,98367.66
2022-08-23T03:51:22.255Z,98371.97
2022-08-23T03:53:49.791Z,98374.47
2022-08-23T03:56:37.713Z,98371.13
2022-08-23T03:59:09.075Z,98373.50
2022-08-23T04:01:36.512Z,98370.84
2022-08-23T04:04:03.766Z,98380.91
2022-08-23T04:06:32.861Z,98375.88
2022-08-23T04:09:00.555Z,98385.63
2022-08-23T04:11:27.637Z,98382.16
2022-08-23T04:13:54.289Z,98383.66
2022-08-23T04:16:21.268Z,98383.41
2022-08-23T04:18:49.531Z,98394.81
2022-08-23T04:21:22.377Z,98398.97
2022-08-23T04:23:49.506Z,98396.22
2022-08-23T04:26:16.091Z,98393.25
2022-08-23T04:28:43.295Z,98398.13
2022-08-23T04:31:09.881Z,98395.34
2022-08-23T04:33:40.268Z,98402.88
2022-08-23T04:36:07.930Z,98406.50
2022-08-23T04:38:34.448Z,98406.78
2022-08-23T04:41:19.569Z,98410.25
2022-08-23T04:43:46.176Z,98416.94
2022-08-23T04:46:16.983Z,98415.97
2022-08-23T04:48:46.287Z,98421.13
2022-08-23T04:51:13.191Z,98423.78
2022-08-23T04:53:40.812Z,98427.81
2022-08-23T04:56:08.803Z,98427.03
2022-08-23T04:58:37.139Z,98434.28
2022-08-23T05:01:08.261Z,98431.47
2022-08-23T05:03:35.440Z,98432.06
2022-08-23T05:06:03.804Z,98424.13
2022-08-23T05:08:31.406Z,98433.34
2022-08-23T05:11:04.339Z,98436.41
2022-08-23T05:13:34.793Z,98439.91
2022-08-23T05:16:02.587Z,98443.97
2022-08-23T05:18:29.300Z,98444.41
2022-08-23T05:20:55.896Z,98449.56
2022-08-23T05:23:23.590Z,98452.22
2022-08-23T05:25:58.702Z,98452.06
2022-08-23T05:28:33.251Z,98452.63
2022-08-23T05:31:11.526Z,98450.66
2022-08-23T05:33:40.486Z,98459.09
2022-08-23T05:36:09.379Z,98458.09
2022-08-23T05:38:36.551Z,98458.09
2022-08-23T05:41:05.292Z,98462.97
2022-08-23T05:43:34.478Z,98459.34
2022-08-23T05:46:13.189Z,98459.34
2022-08-23T05:48:46.780Z,98461.00
2022-08-23T05:51:33.355Z,98464.66
2022-08-23T05:54:05.644Z,98464.66
2022-08-23T05:56:37.328Z,98464.38
2022-08-23T05:59:12.358Z,98468.44
2022-08-23T06:01:41.171Z,98467.75
2022-08-23T06:04:12.395Z,98473.06
2022-08-23T06:06:41.536Z,98472.16
2022-08-23T06:09:11.603Z,98470.91
2022-08-23T06:11:38.247Z,98471.19
2022-08-23T06:14:09.250Z,98480.41
2022-08-23T06:16:43.603Z,98481.97
2022-08-23T06:19:10.934Z,98486.28
2022-08-23T06:21:39.867Z,98486.69
2022-08-23T06:24:07.197Z,98480.97
2022-08-23T06:26:41.364Z,98487.13
2022-08-23T06:29:15.636Z,98484.00
2022-08-23T06:31:49.628Z,98480.78
2022-08-23T06:34:32.210Z,98483.06
2022-08-23T06:37:02.744Z,98481.50
2022-08-23T06:39:35.449Z,98490.16
2022-08-23T06:42:34.804Z,98497.63
2022-08-23T06:44:58.730Z,98491.84
2022-08-23T06:47:25.468Z,98486.19
2022-08-23T06:49:58.336Z,98483.22
2022-08-23T06:52:27.445Z,98489.28
2022-08-23T06:54:54.648Z,98486.97
2022-08-23T06:57:21.421Z,98485.75
2022-08-23T06:59:49.906Z,98485.00
2022-08-23T07:02:16.758Z,98485.91
2022-08-23T07:04:43.433Z,98479.34
2022-08-23T07:07:11.954Z,98476.28
2022-08-23T07:09:40.901Z,98475.22
2022-08-23T07:12:08.052Z,98473.19
2022-08-23T07:14:34.976Z,98488.41
2022-08-23T07:17:03.575Z,98484.66
2022-08-23T07:19:34.789Z,98494.84
2022-08-23T07:22:04.103Z,98493.59
2022-08-23T07:24:33.649Z,98495.16
2022-08-23T07:27:06.862Z,98498.53
2022-08-23T07:29:36.198Z,98498.78
2022-08-23T07:32:03.939Z,98496.03
2022-08-23T07:34:30.543Z,98500.25
2022-08-23T07:36:57.104Z,98499.91
2022-08-23T07:39:26.325Z,98501.94
2022-08-23T07:41:52.945Z,98504.81
2022-08-23T07:44:23.506Z,98504.69
2022-08-23T07:46:55.115Z,98515.25
2022-08-23T07:49:22.946Z,98505.41
2022-08-23T07:51:58.665Z,98510.75
2022-08-23T07:54:25.705Z,98510.44
2022-08-23T07:56:52.294Z,98513.81
2022-08-23T07:59:18.845Z,98523.38
2022-08-23T08:01:45.566Z,98528.56
2022-08-23T08:04:12.500Z,98520.53
2022-08-23T08:06:46.092Z,98524.72
2022-08-23T08:09:15.176Z,98522.91
2022-08-23T08:11:45.321Z,98522.88
2022-08-23T08:14:12.757Z,98519.00
2022-08-23T08:16:44.814Z,98527.03
2022-08-23T08:19:15.721Z,98520.22
2022-08-23T08:21:48.012Z,98514.84
2022-08-23T08:24:19.258Z,98518.00
2022-08-23T08:26:46.856Z,98520.34
2022-08-23T08:29:14.100Z,98514.63
2022-08-23T08:31:43.908Z,98519.94
2022-08-23T08:34:11.927Z,98522.94
2022-08-23T08:36:47.967Z,98515.69
2022-08-23T08:39:21.812Z,98514.97
2022-08-23T08:42:08.992Z,98509.94
2022-08-23T08:44:55.512Z,98512.97
2022-08-23T08:47:53.332Z,98511.28
2022-08-23T08:50:39.486Z,98501.19
2022-08-23T08:53:19.102Z,98502.16
2022-08-23T08:55:51.763Z,98501.28
2022-08-23T08:58:45.484Z,98504.06
2022-08-23T09:01:12.313Z,98513.38
2022-08-23T09:03:40.359Z,98514.94
2022-08-23T09:06:41.478Z,98504.00
2022-08-23T09:09:47.166Z,98502.44
2022-08-23T09:12:44.943Z,98501.66
2022-08-23T09:15:48.960Z,98501.03
2022-08-23T09:18:17.275Z,98503.44
2022-08-23T09:20:47.817Z,98499.00
2022-08-23T09:23:24.072Z,98499.59
2022-08-23T09:26:03.751Z,98497.13
2022-08-23T09:28:36.437Z,98504.56
2022-08-23T09:31:04.371Z,98498.22
2022-08-23T09:33:49.199Z,98497.28
2022-08-23T09:36:23.412Z,98494.13
2022-08-23T09:38:59.779Z,98496.63
2022-08-23T09:41:37.125Z,98497.47
2022-08-23T09:44:13.341Z,98483.75
2022-08-23T09:46:42.816Z,98497.53
2022-08-23T09:49:29.803Z,98497.41
2022-08-23T09:52:02.078Z,98499.78
2022-08-23T09:54:37.148Z,98491.97
2022-08-23T09:57:10.201Z,98490.00
2022-08-23T09:59:51.609Z,98487.69
2022-08-23T10:02:30.358Z,98483.72
2022-08-23T10:05:17.467Z,98487.16
2022-08-23T10:07:54.997Z,98491.56
2022-08-23T10:10:51.118Z,98485.56
2022-08-23T10:13:18.114Z,98491.69
2022-08-23T10:16:10.281Z,98486.81
2022-08-23T10:19:07.859Z,98483.75
2022-08-23T10:22:01.001Z,98482.53
2022-08-23T10:24:54.662Z,98478.41
2022-08-23T10:28:30.884Z,98477.25
2022-08-23T10:31:45.394Z,98480.16
2022-08-23T10:34:50.415Z,98474.56
2022-08-23T10:37:57.256Z,98475.22
2022-08-23T10:40:58.955Z,98469.47
2022-08-23T10:43:45.580Z,98460.44
2022-08-23T10:46:12.985Z,98468.13
2022-08-23T10:48:54.414Z,98466.06
2022-08-23T10:51:43.291Z,98467.13
2022-08-23T10:54:34.409Z,98463.81
2022-08-23T10:57:05.302Z,98461.13
2022-08-23T10:59:36.847Z,98450.19
2022-08-23T11:02:31.491Z,98449.97
2022-08-23T11:05:28.002Z,98451.44
2022-08-23T11:08:30.326Z,98452.69
2022-08-23T11:10:57.143Z,98441.03
2022-08-23T11:13:34.958Z,98439.94
2022-08-23T11:16:13.907Z,98445.38
2022-08-23T11:18:48.695Z,98452.38
2022-08-23T11:21:17.930Z,98441.97
2022-08-23T11:23:59.673Z,98442.13
2022-08-23T11:26:26.063Z,98437.16
2022-08-23T11:29:21.243Z,98453.63
2022-08-23T11:32:29.929Z,98454.25
2022-08-23T11:34:56.819Z,98444.63
2022-08-23T11:37:47.257Z,98445.63
2022-08-23T11:40:18.136Z,98435.41
2022-08-23T11:42:52.711Z,98439.16
2022-08-23T11:45:27.548Z,98437.31
2022-08-23T11:48:24.739Z,98438.31
2022-08-23T11:50:57.516Z,98439.94
2022-08-23T11:53:59.184Z,98436.59
2022-08-23T11:56:26.658Z,98429.69
2022-08-23T11:59:14.038Z,98429.38
2022-08-23T12:01:43.710Z,98437.41
2022-08-23T12:04:26.450Z,98436.72
2022-08-23T12:07:01.538Z,98434.22
2022-08-23T12:09:27.990Z,98433.13
2022-08-23T12:11:57.436Z,98431.22
2022-08-23T12:14:45.307Z,98441.03
2022-08-23T12:17:28.708Z,98435.97
2022-08-23T12:20:16.429Z,98431.06
2022-08-23T12:23:11.451Z,98432.28
2022-08-23T12:25:38.137Z,98415.72
2022-08-23T12:28:31.968Z,98426.84
2022-08-23T12:31:21.853Z,98418.03
2022-08-23T12:34:07.514Z,98422.34
2022-08-23T12:36:51.966Z,98427.75
2022-08-23T12:39:39.562Z,98436.75
2022-08-23T12:42:25.831Z,98430.19
2022-08-23T12:45:17.207Z,98429.06
2022-08-23T12:47:56.825Z,98428.78
2022-08-23T12:50:32.911Z,98430.03
2022-08-23T12:53:11.432Z,98429.66
2022-08-23T12:55:49.889Z,98425.97
2022-08-23T12:58:31.522Z,98428.38
2022-08-23T13:01:16.619Z,98424.06
2022-08-23T13:03:50.555Z,98428.38
2022-08-23T13:06:31.413Z,98428.16
2022-08-23T13:09:29.436Z,98415.59
2022-08-23T13:11:58.948Z,98422.63
2022-08-23T13:14:47.711Z,98424.06
2022-08-23T13:17:26.502Z,98423.75
2022-08-23T13:20:19.886Z,98425.06
2022-08-23T13:23:07.213Z,98413.25
2022-08-23T13:25:38.931Z,98412.31
2022-08-23T13:28:24.108Z,98413.03
2022-08-23T13:31:05.691Z,98404.91
2022-08-23T13:33:32.520Z,98414.72
2022-08-23T13:36:21.724Z,98415.78
2022-08-23T13:38:49.403Z,98408.69
2022-08-23T13:41:39.067Z,98402.63
2022-08-23T13:44:08.933Z,98405.69
2022-08-23T13:46:46.031Z,98407.09
2022-08-23T13:49:21.819Z,98411.44
2022-08-23T13:52:37.574Z,98409.19
2022-08-23T13:54:51.041Z,98397.94
2022-08-23T13:57:22.188Z,98399.81
2022-08-23T13:59:58.851Z,98404.69
2022-08-23T14:02:26.039Z,98400.06
2022-08-23T14:04:52.765Z,98405.47
2022-08-23T14:07:19.815Z,98406.22
2022-08-23T14:09:46.539Z,98411.88
2022-08-23T14:12:21.287Z,98404.59
2022-08-23T14:14:49.150Z,98403.66
2022-08-23T14:17:20.573Z,98413.22
2022-08-23T14:20:33.014Z,98411.47
2022-08-23T14:22:36.142Z,98417.81
2022-08-23T14:25:04.332Z,98418.72
2022-08-23T14:27:31.286Z,98415.28
2022-08-23T14:29:58.446Z,98412.66
2022-08-23T14:32:25.563Z,98411.31
2022-08-23T14:34:52.244Z,98415.13
2022-08-23T14:38:02.944Z,98409.31
2022-08-23T14:40:06.498Z,98410.25
2022-08-23T14:42:33.129Z,98403.06
2022-08-23T14:45:00.139Z,98405.28
2022-08-23T14:47:27.161Z,98407.97
2022-08-23T14:49:54.295Z,98405.25
2022-08-23T14:52:22.316Z,98399.81
2022-08-23T14:54:49.754Z,98402.78
2022-08-23T14:57:16.861Z,98402.31
2022-08-23T14:59:43.419Z,98389.28
2022-08-23T15:02:16.186Z,98388.38
2022-08-23T15:04:42.689Z,98396.28
2022-08-23T15:07:18.652Z,98400.34
2022-08-23T15:09:49.078Z,98396.13
2022-08-23T15:15:14.397Z,98398.75
2022-08-23T15:17:58.553Z,98403.59
2022-08-23T15:20:31.094Z,98394.56
2022-08-23T15:22:58.599Z,98402.84
2022-08-23T15:25:29.030Z,98396.47
2022-08-23T15:27:55.975Z,98397.19
2022-08-23T15:30:24.512Z,98401.22
2022-08-23T15:32:52.527Z,98399.53
2022-08-23T15:35:25.743Z,98410.38
2022-08-23T15:37:54.637Z,98403.56
2022-08-23T15:40:21.812Z,98404.97
2022-08-23T15:42:48.719Z,98400.84
2022-08-23T15:45:15.374Z,98406.31
2022-08-23T15:47:52.586Z,98409.53
2022-08-23T15:50:23.633Z,98405.03
2022-08-23T15:52:50.738Z,98401.56
2022-08-23T15:55:18.086Z,98410.25
2022-08-23T15:57:49.622Z,98404.50
2022-08-23T16:00:20.614Z,98405.66
2022-08-23T16:03:18.212Z,98401.34
2022-08-23T16:05:37.043Z,98401.41
2022-08-23T16:08:05.578Z,98404.38
2022-08-23T16:10:32.288Z,98402.72
2022-08-23T16:12:59.118Z,98405.44
2022-08-23T16:15:25.671Z,98407.91
2022-08-23T16:17:52.651Z,98403.31
2022-08-23T16:20:20.169Z,98404.75
2022-08-23T16:22:46.660Z,98398.88
2022-08-23T16:25:13.165Z,98404.88
2022-08-23T16:27:39.707Z,98397.59
2022-08-23T16:30:08.086Z,98397.97
2022-08-23T16:32:39.138Z,98396.31
2022-08-23T16:35:07.259Z,98404.88
2022-08-23T16:37:33.813Z,98404.31
2022-08-23T16:40:00.399Z,98395.69
2022-08-23T16:42:26.980Z,98394.88
2022-08-23T16:44:53.563Z,98403.25
2022-08-23T16:47:20.263Z,98404.88
2022-08-23T16:49:47.150Z,98403.81
2022-08-23T16:52:14.035Z,98409.72
2022-08-23T16:54:40.870Z,98405.13
2022-08-23T16:57:07.405Z,98410.63
2022-08-23T16:59:40.196Z,98407.75
2022-08-23T17:02:10.901Z,98404.97
2022-08-23T17:04:38.035Z,98412.78
2022-08-23T17:07:04.878Z,98414.69
2022-08-23T17:09:31.444Z,98408.09
2022-08-23T17:11:58.467Z,98402.97
2022-08-23T17:14:26.006Z,98407.41
2022-08-23T17:16:53.158Z,98412.00
2022-08-23T17:19:19.821Z,98407.84
2022-08-23T17:21:46.468Z,98418.53
2022-08-23T17:24:13.078Z,98414.38
2022-08-23T17:26:39.691Z,98421.72
2022-08-23T17:29:07.345Z,98413.88
2022-08-23T17:31:33.973Z,98416.81
2022-08-23T17:34:03.689Z,98415.19
2022-08-23T17:36:47.571Z,98417.78
2022-08-23T17:39:18.934Z,98422.84
2022-08-23T17:41:45.871Z,98420.81
2022-08-23T17:44:13.289Z,98420.44
2022-08-23T17:46:45.031Z,98426.31
2022-08-23T17:49:13.436Z,98435.28
2022-08-23T17:51:41.272Z,98439.91
2022-08-23T17:54:10.023Z,98441.41
2022-08-23T17:56:37.864Z,98439.97
2022-08-23T17:59:07.304Z,98441.81
2022-08-23T18:01:34.293Z,98445.38
2022-08-23T18:04:00.916Z,98443.13
2022-08-23T18:06:27.954Z,98449.34
2022-08-23T18:08:55.544Z,98449.53
2022-08-23T18:11:22.804Z,98457.16
2022-08-23T18:13:49.535Z,98457.56
2022-08-23T18:16:16.138Z,98457.97
2022-08-23T18:18:43.281Z,98461.47
2022-08-23T18:21:12.605Z,98466.00
2022-08-23T18:23:41.391Z,98471.94
2022-08-23T18:26:30.253Z,98469.81
2022-08-23T18:28:57.891Z,98469.16
2022-08-23T18:31:27.283Z,98473.69
2022-08-23T18:34:00.218Z,98483.75
2022-08-23T18:36:29.687Z,98490.91
2022-08-23T18:38:57.139Z,98489.41
2022-08-23T18:41:23.823Z,98483.16
2022-08-23T18:43:51.238Z,98489.56
2022-08-23T18:46:18.829Z,98488.69
2022-08-23T18:48:53.214Z,98485.25
2022-08-23T18:51:22.084Z,98497.72
2022-08-23T18:53:48.739Z,98503.13
2022-08-23T18:56:15.321Z,98496.59
2022-08-23T18:58:41.835Z,98503.78
2022-08-23T19:01:33.342Z,98498.06
2022-08-23T19:04:03.963Z,98508.28
2022-08-23T19:06:31.915Z,98507.66
2022-08-23T19:09:00.821Z,98513.59
2022-08-23T19:11:29.182Z,98516.06
2022-08-23T19:13:56.387Z,98521.66
2022-08-23T19:16:24.093Z,98521.09
2022-08-23T19:18:51.155Z,98519.59
2022-08-23T19:21:22.204Z,98522.75
2022-08-23T19:23:52.344Z,98527.66
2022-08-23T19:26:25.679Z,98540.75
2022-08-23T19:28:52.641Z,98540.94
2022-08-23T19:31:19.237Z,98546.31
2022-08-23T19:33:45.831Z,98552.69
2022-08-23T19:36:29.295Z,98539.63
2022-08-23T19:38:58.828Z,98540.66
2022-08-23T19:41:25.379Z,98543.81
2022-08-23T19:43:52.104Z,98549.72
2022-08-23T19:46:18.657Z,98546.69
2022-08-23T19:48:47.436Z,98548.06
2022-08-23T19:51:18.551Z,98547.47
2022-08-23T19:54:03.584Z,98549.06
2022-08-23T19:56:37.151Z,98555.38
2022-08-23T19:59:08.753Z,98560.34
2022-08-23T20:01:36.856Z,98553.59
2022-08-23T20:04:05.020Z,98558.19
2022-08-23T20:06:32.432Z,98554.97
2022-08-23T20:08:59.692Z,98560.38
2022-08-23T20:11:27.820Z,98563.94
2022-08-23T20:13:56.490Z,98565.78
2022-08-23T20:16:23.794Z,98565.69
2022-08-23T20:18:51.430Z,98576.59
2022-08-23T20:21:18.126Z,98575.59
2022-08-23T20:24:00.933Z,98575.13
2022-08-23T20:26:35.338Z,98572.16
2022-08-23T20:29:04.733Z,98581.69
2022-08-23T20:31:36.376Z,98584.38
2022-08-23T20:34:08.865Z,98584.06
2022-08-23T20:36:35.979Z,98581.72
2022-08-23T20:39:04.098Z,98587.09
2022-08-23T20:41:36.800Z,98584.59
2022-08-23T20:44:05.707Z,98584.75
2022-08-23T20:46:33.082Z,98591.13
2022-08-23T20:48:59.900Z,98593.25
2022-08-23T20:51:29.324Z,98593.91
2022-08-23T20:53:56.554Z,98592.44
2022-08-23T20:56:25.188Z,98594.09
2022-08-23T20:58:52.463Z,98596.44
2022-08-23T21:01:19.364Z,98590.41
2022-08-23T21:03:46.058Z,98598.41
2022-08-23T21:06:23.213Z,98594.72
2022-08-23T21:08:55.882Z,98604.25
2022-08-23T21:11:28.498Z,98602.72
2022-08-23T21:13:57.170Z,98594.97
2022-08-23T21:16:25.277Z,98598.63
2022-08-23T21:18:53.938Z,98594.25
2022-08-23T21:21:26.185Z,98594.91
2022-08-23T21:23:55.195Z,98593.25
2022-08-23T21:26:23.419Z,98593.03
2022-08-23T21:28:52.118Z,98595.00
2022-08-23T21:31:25.442Z,98596.63
2022-08-23T21:33:54.454Z,98592.47
2022-08-23T21:36:23.371Z,98596.09
2022-08-23T21:38:50.319Z,98600.00
2022-08-23T21:41:45.765Z,98599.28
2022-08-23T21:44:18.729Z,98595.06
2022-08-23T21:46:46.735Z,98591.66
2022-08-23T21:49:20.820Z,98599.31
2022-08-23T21:51:49.046Z,98603.34
2022-08-23T21:54:18.205Z,98602.50
2022-08-23T21:56:45.881Z,98600.50
2022-08-23T21:59:17.106Z,98604.66
2022-08-23T22:01:44.978Z,98594.72
2022-08-23T22:04:14.517Z,98605.94
2022-08-23T22:06:44.735Z,98606.97
2022-08-23T22:09:15.773Z,98611.50
2022-08-23T22:11:46.235Z,98605.44
2022-08-23T22:14:21.454Z,98613.53
2022-08-23T22:16:49.403Z,98626.13
2022-08-23T22:19:22.338Z,98628.72
2022-08-23T22:21:51.299Z,98628.25
2022-08-23T22:24:24.678Z,98618.34
2022-08-23T22:26:52.581Z,98615.44
2022-08-23T22:29:19.271Z,98615.50
2022-08-23T22:31:48.066Z,98614.91
2022-08-23T22:34:15.071Z,98612.88
2022-08-23T22:36:41.985Z,98610.56
2022-08-23T22:39:08.691Z,98610.38
2022-08-23T22:41:35.479Z,98616.88
2022-08-23T22:44:03.381Z,98618.31
2022-08-23T22:46:33.655Z,98618.03
2022-08-23T22:49:01.812Z,98616.19
2022-08-23T22:51:32.324Z,98619.44
2022-08-23T22:54:08.923Z,98621.50
2022-08-23T22:57:01.776Z,98618.28
2022-08-23T22:59:32.785Z,98616.63
2022-08-23T23:02:00.130Z,98620.88
2022-08-23T23:04:31.396Z,98613.28
2022-08-23T23:06:58.450Z,98615.31
2022-08-23T23:09:26.352Z,98620.41
2022-08-23T23:11:53.982Z,98623.16
2022-08-23T23:14:22.310Z,98627.09
2022-08-23T23:16:50.807Z,98622.50
2022-08-23T23:19:36.301Z,98620.97
2022-08-23T23:22:04.705Z,98621.69
2022-08-23T23:24:38.476Z,98619.69
2022-08-23T23:27:05.789Z,98625.56
2022-08-23T23:29:32.874Z,98623.88
2022-08-23T23:31:59.939Z,98620.53
2022-08-23T23:34:28.146Z,98627.56
2022-08-23T23:36:57.513Z,98628.22
2022-08-23T23:39:25.665Z,98624.78
2022-08-23T23:41:52.716Z,98631.06
2022-08-23T23:44:22.443Z,98630.22
2022-08-23T23:46:56.498Z,98636.53
2022-08-23T23:49:23.584Z,98633.16
2022-08-23T23:51:58.451Z,98624.91
2022-08-23T23:54:25.570Z,98633.03
2022-08-23T23:56:52.068Z,98629.25
2022-08-23T23:59:19.879Z,98635.56
